Latest Weather Observations for Blackwater Airport

IDQ60801

Issued at 5:52 am EST Sunday 22 September 2019 (issued every 10 minutes, with the page automatically refreshed every 10 minutes)

About weather observations | Map of weather stations | Latest weather observations for QLD | Other Formats
Station Details ID: 035134 Name: BLACKWATER AIRPORT Lat: -23.60 Lon: 148.81 Height: 192.95 m
Data from the previous 72 hours. | See also: Recent months at Blackwater Airport
Date/Time
EST
Temp
°C
App
Temp
°C
Dew
Point
°C
Rel
Hum
%
Delta-T
°C
Wind Press
QNH
hPa
Press
MSL
hPa
Rain since
9am
mm
Dir  Spd
km/h
Gust
km/h
Spd
kts
Gust
kts
22/05:30am 16.5 15.6 14.9 90 0.9 ENE 13 19 7 10 1023.8 1023.2 0.0
22/05:00am 15.1 14.4 13.3 89 1.0 NE 9 13 5 7 1023.6 1022.9 0.0
22/04:30am 15.6 15.4 13.6 88 1.1 N 7 9 4 5 1023.4 1022.7 0.0
22/04:00am 16.2 16.1 14.0 87 1.3 NNE 7 13 4 7 1022.9 1022.2 0.0
22/03:30am 16.2 15.7 13.9 86 1.3 NE 9 13 5 7 1022.6 1021.9 0.0
22/03:00am 15.5 14.4 13.2 86 1.3 N 11 11 6 6 1022.6 1021.9 0.0
22/02:30am 15.4 14.5 12.5 83 1.6 N 9 11 5 6 1022.6 1021.9 0.0
22/02:00am 16.5 15.6 12.7 78 2.1 NE 9 13 5 7 1022.8 1022.1 0.0
22/01:30am 16.9 15.6 12.4 75 2.5 NE 11 15 6 8 1023.1 1022.4 0.0
22/01:00am 17.4 15.6 12.1 71 2.9 ENE 13 20 7 11 1023.2 1022.5 0.0
22/12:30am 18.0 15.7 11.8 67 3.4 ENE 15 22 8 12 1023.3 1022.6 0.0
22/12:00am 18.5 15.6 11.1 62 4.0 ENE 17 22 9 12 1023.3 1022.6 0.0
 
Date/Time
EST
Temp
°C
App
Temp
°C
Dew
Point
°C
Rel
Hum
%
Delta-T
°C
Wind Press
QNH
hPa
Press
MSL
hPa
Rain since
9am
mm
Dir  Spd
km/h
Gust
km/h
Spd
kts
Gust
kts
21/11:30pm 17.6 15.7 10.5 63 3.8 NE 11 15 6 8 1023.2 1022.5 0.0
21/11:00pm 18.3 16.7 11.6 65 3.7 NE 11 15 6 8 1023.2 1022.5 0.0
21/10:30pm 19.6 17.4 12.1 62 4.2 NE 15 20 8 11 1023.0 1022.3 0.0
21/10:00pm 20.3 17.8 12.3 60 4.5 NE 17 24 9 13 1022.9 1022.2 0.0
21/09:30pm 20.7 18.1 12.1 58 4.9 NE 17 26 9 14 1022.6 1021.9 0.0
21/09:00pm 21.3 18.4 12.2 56 5.1 NE 19 26 10 14 1022.3 1021.6 0.0
21/08:30pm 21.5 19.7 12.1 55 5.3 NE 13 17 7 9 1022.0 1021.3 0.0
21/08:00pm 22.9 19.1 12.5 52 6.0 NE 24 35 13 19 1021.5 1020.8 0.0
21/07:30pm 23.5 20.4 12.2 49 6.5 NE 20 30 11 16 1021.1 1020.4 0.0
21/07:00pm 24.5 21.1 11.1 43 7.6 NE 20 33 11 18 1020.4 1019.7 0.0
21/06:30pm 25.1 22.0 9.0 36 8.8 ENE 15 20 8 11 1020.0 1019.3 0.0
21/06:00pm 26.2 22.9 8.2 32 9.7 ENE 15 24 8 13 1019.7 1019.0 0.0
21/05:30pm 27.5 24.5 7.9 29 10.7 NE 13 20 7 11 1019.4 1018.8 0.0
21/05:00pm 28.3 24.5 7.5 27 11.3 NE 17 24 9 13 1019.1 1018.4 0.0
21/04:30pm 29.1 25.3 7.7 26 11.7 NE 17 24 9 13 1018.9 1018.2 0.0
21/04:00pm 29.0 25.0 8.1 27 11.5 NE 19 28 10 15 1018.8 1018.1 0.0
21/03:30pm 28.9 24.6 8.0 27 11.5 NE 20 32 11 17 1019.0 1018.3 0.0
21/03:00pm 29.3 25.1 8.4 27 11.5 NE 20 33 11 18 1019.1 1018.4 0.0
21/02:30pm 28.9 25.1 9.1 29 11.1 E 19 33 10 18 1019.6 1018.9 0.0
21/02:00pm 29.7 25.5 9.8 29 11.3 ENE 22 35 12 19 1020.1 1019.4 0.0
21/01:30pm 28.9 24.8 10.1 31 10.7 NE 22 41 12 22 1020.7 1020.0 0.0
21/01:00pm 28.2 24.4 9.9 32 10.3 NE 20 30 11 16 1021.1 1020.4 0.0
21/12:30pm 28.5 24.8 10.2 32 10.4 NE 20 33 11 18 1021.7 1021.0 0.0
21/12:00pm 29.3 26.0 10.9 32 10.6 NE 19 37 10 20 1022.3 1021.6 0.0
21/11:30am 26.9 23.3 10.6 36 9.2 ENE 20 37 11 20 1022.9 1022.2 0.0
21/11:00am 26.0 21.7 10.6 38 8.7 ENE 24 39 13 21 1023.3 1022.6 0.0
21/10:30am 24.6 21.3 11.5 44 7.5 ENE 20 32 11 17 1023.7 1023.1 0.0
21/10:00am 24.3 20.8 12.3 47 6.9 NE 22 32 12 17 1024.0 1023.4 0.0
21/09:30am 23.1 20.1 12.1 50 6.3 ENE 19 33 10 18 1024.5 1023.9 0.0
21/09:00am 23.0 20.4 13.2 54 5.7 ENE 19 32 10 17 1024.8 1024.2 0.0
21/08:30am 21.9 19.9 13.8 60 4.7 NE 17 26 9 14 1025.1 1024.4 0.0
21/08:00am 21.6 19.1 14.0 62 4.4 ENE 20 28 11 15 1025.0 1024.3 0.0
21/07:30am 20.2 19.0 15.0 72 3.1 E 15 24 8 13 1025.1 1024.4 0.0
21/07:00am 18.6 18.9 14.9 79 2.2 ESE 7 15 4 8 1024.8 1024.2 0.0
21/06:30am 16.3 16.1 14.7 90 0.9 E 9 11 5 6 1024.3 1023.7 0.0
21/06:00am 15.1 15.1 13.5 90 0.9 ENE 6 7 3 4 1024.0 1023.4 0.0
21/05:30am 15.2 14.9 13.2 88 1.1 ENE 7 9 4 5 1023.8 1023.2 0.0
21/05:00am 15.9 14.6 13.6 86 1.3 ENE 13 13 7 7 1023.3 1022.6 0.0
21/04:30am 16.8 15.6 14.1 84 1.6 ENE 13 17 7 9 1023.1 1022.4 0.0
21/04:00am 17.3 15.4 14.2 82 1.8 ENE 17 24 9 13 1022.9 1022.2 0.0
21/03:30am 17.1 14.8 14.0 82 1.8 ENE 19 26 10 14 1022.8 1022.1 0.0
21/03:00am 17.1 14.7 13.8 81 1.9 ENE 19 24 10 13 1022.6 1021.9 0.0
21/02:30am 17.1 14.4 13.6 80 2.0 NE 20 30 11 16 1022.3 1021.6 0.0
21/02:00am 17.2 15.1 13.7 80 2.0 NE 17 24 9 13 1022.5 1021.8 0.0
21/01:30am 17.1 16.3 13.0 77 2.3 ENE 9 13 5 7 1022.7 1022.0 0.0
21/01:00am 17.5 16.0 13.2 76 2.4 ENE 13 20 7 11 1022.7 1022.0 0.0
21/12:30am 17.6 15.5 12.3 71 3.0 NE 15 24 8 13 1022.7 1022.0 0.0
21/12:00am 18.0 14.9 12.2 69 3.2 NE 20 28 11 15 1022.6 1021.9 0.0
 
Date/Time
EST
Temp
°C
App
Temp
°C
Dew
Point
°C
Rel
Hum
%
Delta-T
°C
Wind Press
QNH
hPa
Press
MSL
hPa
Rain since
9am
mm
Dir  Spd
km/h
Gust
km/h
Spd
kts
Gust
kts
20/11:30pm 18.0 14.4 10.6 62 4.0 NE 20 30 11 16 1022.6 1021.9 0.0
20/11:00pm 18.3 14.6 9.4 56 4.7 NE 19 26 10 14 1022.6 1021.9 0.0
20/10:30pm 18.8 14.9 8.7 52 5.3 NE 19 24 10 13 1022.5 1021.8 0.0
20/10:00pm 19.1 15.4 7.8 48 5.8 NE 17 24 9 13 1022.5 1021.8 0.0
20/09:30pm 19.7 15.4 7.1 44 6.4 ENE 19 22 10 12 1022.4 1021.7 0.0
20/09:00pm 20.5 15.8 6.1 39 7.2 ENE 20 26 11 14 1022.1 1021.4 0.0
20/08:30pm 20.3 16.9 5.9 39 7.2 NE 13 20 7 11 1021.9 1021.2 0.0
20/08:00pm 21.8 17.7 6.1 36 8.0 ENE 17 24 9 13 1021.4 1020.7 0.0
20/07:30pm 22.9 17.8 6.2 34 8.6 ENE 22 30 12 16 1021.0 1020.3 0.0
20/07:00pm 23.8 18.7 6.1 32 9.1 ENE 22 28 12 15 1020.3 1019.6 0.0
20/06:30pm 24.4 18.9 5.7 30 9.6 ENE 24 32 13 17 1019.8 1019.1 0.0
20/06:00pm 25.1 20.3 4.8 27 10.3 ENE 19 30 10 16 1019.3 1018.7 0.0
20/05:30pm 26.3 21.1 5.3 26 10.8 ENE 22 33 12 18 1018.9 1018.2 0.0
20/05:00pm 27.2 21.3 6.0 26 11.1 E 26 33 14 18 1018.7 1018.0 0.0
20/04:30pm 28.3 22.8 5.8 24 11.9 ENE 24 35 13 19 1018.5 1017.8 0.0
20/04:00pm 28.9 24.3 5.7 23 12.2 ENE 19 39 10 21 1018.2 1017.5 0.0
20/03:30pm 28.8 24.3 6.8 25 11.8 E 20 32 11 17 1018.3 1017.6 0.0
20/03:00pm 28.1 23.8 6.8 26 11.4 ENE 19 28 10 15 1018.6 1017.9 0.0
20/02:30pm 29.0 24.6 7.6 26 11.7 ENE 20 28 11 15 1018.9 1018.2 0.0
20/02:00pm 27.2 21.6 7.1 28 10.7 ENE 26 43 14 23 1019.4 1018.8 0.0
20/01:30pm 27.5 23.0 8.4 30 10.5 ENE 22 32 12 17 1020.0 1019.3 0.0
20/01:00pm 27.8 23.6 9.6 32 10.2 ENE 22 39 12 21 1020.8 1020.1 0.0
20/12:30pm 28.2 24.6 10.4 33 10.1 NE 20 35 11 19 1021.4 1020.7 0.0
20/12:00pm 26.8 23.0 11.3 38 8.9 ENE 22 32 12 17 1022.0 1021.3 0.0
20/11:30am 26.3 21.7 10.9 38 8.8 ENE 26 37 14 20 1022.4 1021.7 0.0
20/11:00am 25.5 21.7 12.4 44 7.6 ENE 24 43 13 23 1023.0 1022.3 0.0
20/10:30am 24.9 20.6 12.2 45 7.3 ENE 26 44 14 24 1023.4 1022.7 0.0
20/10:00am 22.9 19.6 12.8 53 5.8 E 22 35 12 19 1023.9 1023.3 0.0
20/09:30am 23.2 19.5 12.8 52 6.0 ENE 24 35 13 19 1023.9 1023.3 0.0
20/09:00am 22.5 19.5 13.6 57 5.2 ENE 22 33 12 18 1024.0 1023.4 0.0
20/08:30am 22.1 19.6 14.2 61 4.7 NE 20 32 11 17 1024.1 1023.5 0.0
20/08:00am 21.1 19.6 15.4 70 3.4 NE 17 24 9 13 1024.0 1023.4 0.0
20/07:30am 20.0 18.1 15.2 74 2.9 ENE 19 28 10 15 1023.7 1023.1 0.0
20/07:00am 18.8 17.6 15.1 79 2.2 ENE 15 22 8 12 1023.3 1022.6 0.0
20/06:30am 17.6 16.7 14.9 84 1.6 E 13 15 7 8 1023.1 1022.4 0.0
20/06:00am 17.2 15.9 14.8 86 1.4 E 15 19 8 10 1022.7 1022.0 0.0
20/05:30am 17.1 16.1 14.6 85 1.5 E 13 19 7 10 1022.4 1021.7 0.0
20/05:00am 17.2 15.7 14.3 83 1.7 E 15 20 8 11 1021.9 1021.2 0.0
20/04:30am 17.4 15.1 14.1 81 1.9 ENE 19 24 10 13 1021.3 1020.6 0.0
20/04:00am 17.5 15.9 13.8 79 2.1 E 15 22 8 12 1021.2 1020.5 0.0
20/03:30am 17.3 16.0 13.6 79 2.1 NE 13 17 7 9 1020.8 1020.1 0.0
20/03:00am 17.1 16.0 13.2 78 2.2 NE 11 15 6 8 1020.7 1020.0 0.0
20/02:30am 17.9 16.2 13.6 76 2.5 NE 15 20 8 11 1020.7 1020.0 0.0
20/02:00am 18.2 16.5 13.5 74 2.7 NE 15 20 8 11 1020.6 1019.9 0.0
20/01:30am 18.2 16.4 13.3 73 2.8 NE 15 20 8 11 1020.7 1020.0 0.0
20/01:00am 18.4 16.1 13.1 71 3.0 NE 17 22 9 12 1020.8 1020.1 0.0
20/12:30am 18.3 16.4 13.0 71 3.0 NE 15 20 8 11 1020.7 1020.0 0.0
20/12:00am 18.5 16.2 12.9 70 3.2 NE 17 20 9 11 1020.8 1020.1 0.0
 
Date/Time
EST
Temp
°C
App
Temp
°C
Dew
Point
°C
Rel
Hum
%
Delta-T
°C
Wind Press
QNH
hPa
Press
MSL
hPa
Rain since
9am
mm
Dir  Spd
km/h
Gust
km/h
Spd
kts
Gust
kts
19/11:30pm 18.8 17.0 13.2 70 3.2 NE 15 20 8 11 1021.0 1020.3 0.0
19/11:00pm 19.1 17.3 13.3 69 3.3 NE 15 19 8 10 1021.2 1020.5 0.0
19/10:30pm 18.8 17.3 13.0 69 3.3 NE 13 15 7 8 1021.1 1020.4 0.0
19/10:00pm 19.5 18.0 13.0 66 3.7 NE 13 17 7 9 1021.1 1020.4 0.0
19/09:30pm 20.5 18.0 13.5 64 4.0 NE 19 24 10 13 1020.9 1020.2 0.0
19/09:00pm 21.1 18.4 13.5 62 4.4 NE 20 33 11 18 1020.8 1020.1 0.0
19/08:30pm 21.7 18.2 13.3 59 4.9 NE 24 35 13 19 1020.4 1019.7 0.0
19/08:00pm 22.7 18.9 13.5 56 5.4 NE 26 37 14 20 1020.0 1019.3 0.0
19/07:30pm 23.8 20.5 12.8 50 6.4 NNE 22 33 12 18 1019.4 1018.8 0.0
19/07:00pm 25.0 21.9 12.2 44 7.4 NNE 20 32 11 17 1018.7 1018.0 0.0
19/06:30pm 25.4 22.6 11.2 41 8.1 NE 17 26 9 14 1018.3 1017.6 0.0
19/06:00pm 26.4 23.2 10.1 36 9.1 NE 17 28 9 15 1017.9 1017.2 0.0
19/05:30pm 28.1 24.5 8.4 29 10.8 NE 17 24 9 13 1017.7 1017.0 0.0
19/05:00pm 28.1 23.6 8.4 29 10.8 NE 22 30 12 16 1017.5 1016.8 0.0
19/04:30pm 29.5 25.9 8.5 27 11.7 NE 17 26 9 14 1017.4 1016.7 0.0
19/04:00pm 29.8 26.5 8.2 26 11.9 NNE 15 26 8 14 1017.2 1016.5 0.0
19/03:30pm 30.9 27.3 9.7 27 12.1 NE 19 30 10 16 1017.1 1016.4 0.0
19/03:00pm 30.7 27.8 9.6 27 12.0 NNE 15 30 8 16 1017.2 1016.5 0.0
19/02:30pm 30.3 26.7 9.8 28 11.7 NE 19 30 10 16 1017.6 1016.9 0.0
19/02:00pm 29.5 26.3 10.1 30 11.0 NE 17 32 9 17 1018.0 1017.3 0.0
19/01:30pm 29.2 25.9 10.8 32 10.6 NE 19 32 10 17 1018.6 1017.9 0.0
19/01:00pm 29.3 25.9 11.4 33 10.4 NE 20 30 11 16 1019.1 1018.4 0.0
19/12:30pm 28.7 25.9 11.3 34 10.1 NNE 17 26 9 14 1019.6 1018.9 0.0
19/12:00pm 28.9 26.0 12.8 37 9.5 NE 20 33 11 18 1020.1 1019.4 0.0
19/11:30am 26.6 23.0 11.9 40 8.5 NE 22 37 12 20 1020.7 1020.0 0.0
19/11:00am 27.2 24.6 13.2 42 8.3 NE 19 30 10 16 1021.2 1020.5 0.0
19/10:30am 24.9 22.1 13.1 48 6.9 ENE 20 35 11 19 1021.7 1021.0 0.0
19/10:00am 25.0 21.8 14.2 51 6.4 ENE 24 33 13 18 1021.9 1021.2 0.0
19/09:30am 23.7 20.8 14.1 55 5.7 ENE 22 32 12 17 1022.0 1021.3 0.0
19/09:00am 22.2 18.1 13.8 59 4.9 NE 28 39 15 21 1022.0 1021.3 0.0
19/08:30am 21.8 19.0 14.4 63 4.4 ENE 22 35 12 19 1021.8 1021.1 0.0
19/08:00am 21.2 18.2 14.8 67 3.8 ENE 24 32 13 17 1021.7 1021.0 0.0
19/07:30am 20.4 17.6 11.3 56 5.1 E 17 24 9 13 1021.4 1020.7 0.0
19/07:00am 18.6 16.3 7.4 48 5.7 ESE 9 11 5 6 1021.0 1020.3 0.0
19/06:30am 17.4 14.5 8.0 54 4.8 E 13 20 7 11 1020.4 1019.7 0.0
19/06:00am 17.0 14.5 12.3 74 2.6 ENE 17 24 9 13 1019.9 1019.2 0.0

Other formats

Comma delimited format used in spreadsheet applications
http://www.bom.gov.au/fwo/IDQ60801/IDQ60801.94398.axf

JavaScript Object Notation format (JSON) in row-major order
http://www.bom.gov.au/fwo/IDQ60801/IDQ60801.94398.json

Data quality

Most of these data are generated automatically and are frequently updated. Quality checks on data are not normally performed. It is possible for incorrect values to appear. Refer to information at About Latest Weather Observations and please check the disclaimer before using these data.